sensor_id;sensor_type;location;lat;lon;timestamp;P1;durP1;ratioP1;P2;durP2;ratioP2
16878;SDS011;8556;52.218;9.884;2023-05-16T00:01:08;16.60;;;9.93;;
16878;SDS011;8556;52.218;9.884;2023-05-16T00:03:36;16.03;;;10.40;;
16878;SDS011;8556;52.218;9.884;2023-05-16T00:06:03;15.20;;;9.73;;
16878;SDS011;8556;52.218;9.884;2023-05-16T00:08:30;16.07;;;10.07;;
16878;SDS011;8556;52.218;9.884;2023-05-16T00:10:57;16.80;;;10.10;;
16878;SDS011;8556;52.218;9.884;2023-05-16T00:13:23;15.63;;;9.23;;
16878;SDS011;8556;52.218;9.884;2023-05-16T00:15:50;18.00;;;10.30;;
16878;SDS011;8556;52.218;9.884;2023-05-16T00:18:19;15.63;;;9.37;;
16878;SDS011;8556;52.218;9.884;2023-05-16T00:20:47;15.73;;;8.37;;
16878;SDS011;8556;52.218;9.884;2023-05-16T00:23:14;14.40;;;8.50;;
16878;SDS011;8556;52.218;9.884;2023-05-16T00:25:41;14.50;;;8.60;;
16878;SDS011;8556;52.218;9.884;2023-05-16T00:28:08;14.17;;;8.57;;
16878;SDS011;8556;52.218;9.884;2023-05-16T00:30:35;13.93;;;8.73;;
16878;SDS011;8556;52.218;9.884;2023-05-16T00:33:02;11.60;;;7.63;;
16878;SDS011;8556;52.218;9.884;2023-05-16T00:35:29;14.20;;;7.73;;
16878;SDS011;8556;52.218;9.884;2023-05-16T00:37:57;11.47;;;7.30;;
16878;SDS011;8556;52.218;9.884;2023-05-16T00:40:23;10.27;;;6.63;;
16878;SDS011;8556;52.218;9.884;2023-05-16T00:42:50;13.30;;;6.93;;
16878;SDS011;8556;52.218;9.884;2023-05-16T00:45:17;15.53;;;8.23;;
16878;SDS011;8556;52.218;9.884;2023-05-16T00:47:44;12.73;;;7.30;;
16878;SDS011;8556;52.218;9.884;2023-05-16T00:50:10;14.00;;;8.30;;
16878;SDS011;8556;52.218;9.884;2023-05-16T00:52:37;13.73;;;8.20;;
16878;SDS011;8556;52.218;9.884;2023-05-16T00:55:06;15.00;;;9.13;;
16878;SDS011;8556;52.218;9.884;2023-05-16T00:57:35;15.73;;;9.03;;
16878;SDS011;8556;52.218;9.884;2023-05-16T01:00:02;12.20;;;8.00;;
16878;SDS011;8556;52.218;9.884;2023-05-16T01:02:30;16.90;;;9.40;;
16878;SDS011;8556;52.218;9.884;2023-05-16T01:04:59;13.40;;;8.47;;
16878;SDS011;8556;52.218;9.884;2023-05-16T01:07:26;16.10;;;8.43;;
16878;SDS011;8556;52.218;9.884;2023-05-16T01:09:53;13.67;;;8.27;;
16878;SDS011;8556;52.218;9.884;2023-05-16T01:12:22;14.27;;;7.90;;
16878;SDS011;8556;52.218;9.884;2023-05-16T01:14:55;12.90;;;8.50;;
16878;SDS011;8556;52.218;9.884;2023-05-16T01:17:32;12.70;;;6.83;;
16878;SDS011;8556;52.218;9.884;2023-05-16T01:20:05;11.53;;;7.60;;
16878;SDS011;8556;52.218;9.884;2023-05-16T01:22:45;11.63;;;7.33;;
16878;SDS011;8556;52.218;9.884;2023-05-16T01:25:20;11.83;;;6.43;;
16878;SDS011;8556;52.218;9.884;2023-05-16T01:27:57;7.97;;;5.60;;
16878;SDS011;8556;52.218;9.884;2023-05-16T01:30:26;9.97;;;6.07;;
16878;SDS011;8556;52.218;9.884;2023-05-16T01:32:57;8.10;;;6.00;;
16878;SDS011;8556;52.218;9.884;2023-05-16T01:35:24;8.20;;;5.80;;
16878;SDS011;8556;52.218;9.884;2023-05-16T01:37:51;8.83;;;5.63;;
16878;SDS011;8556;52.218;9.884;2023-05-16T01:40:26;8.10;;;5.40;;
16878;SDS011;8556;52.218;9.884;2023-05-16T01:42:59;10.40;;;6.33;;
16878;SDS011;8556;52.218;9.884;2023-05-16T01:45:33;9.30;;;6.03;;
16878;SDS011;8556;52.218;9.884;2023-05-16T01:48:06;14.13;;;7.07;;
16878;SDS011;8556;52.218;9.884;2023-05-16T01:50:38;9.83;;;6.87;;
16878;SDS011;8556;52.218;9.884;2023-05-16T01:53:18;13.07;;;7.10;;
16878;SDS011;8556;52.218;9.884;2023-05-16T01:55:50;11.83;;;7.60;;
16878;SDS011;8556;52.218;9.884;2023-05-16T01:58:24;10.63;;;7.23;;
16878;SDS011;8556;52.218;9.884;2023-05-16T02:00:53;10.80;;;7.40;;
16878;SDS011;8556;52.218;9.884;2023-05-16T02:03:20;14.33;;;7.17;;
16878;SDS011;8556;52.218;9.884;2023-05-16T02:05:46;12.73;;;6.90;;
16878;SDS011;8556;52.218;9.884;2023-05-16T02:08:13;10.30;;;7.57;;
16878;SDS011;8556;52.218;9.884;2023-05-16T02:10:40;11.43;;;8.00;;
16878;SDS011;8556;52.218;9.884;2023-05-16T02:13:07;12.70;;;8.03;;
16878;SDS011;8556;52.218;9.884;2023-05-16T02:15:36;13.47;;;8.40;;
16878;SDS011;8556;52.218;9.884;2023-05-16T02:18:03;12.40;;;8.47;;
16878;SDS011;8556;52.218;9.884;2023-05-16T02:20:34;14.13;;;7.93;;
16878;SDS011;8556;52.218;9.884;2023-05-16T02:23:01;12.20;;;8.17;;
16878;SDS011;8556;52.218;9.884;2023-05-16T02:25:28;14.57;;;8.53;;
16878;SDS011;8556;52.218;9.884;2023-05-16T02:27:55;14.23;;;8.20;;
16878;SDS011;8556;52.218;9.884;2023-05-16T02:30:21;12.50;;;8.33;;
16878;SDS011;8556;52.218;9.884;2023-05-16T02:32:50;16.03;;;8.60;;
16878;SDS011;8556;52.218;9.884;2023-05-16T02:35:17;10.80;;;7.67;;
16878;SDS011;8556;52.218;9.884;2023-05-16T02:37:44;9.67;;;6.57;;
16878;SDS011;8556;52.218;9.884;2023-05-16T02:40:11;11.50;;;6.60;;
16878;SDS011;8556;52.218;9.884;2023-05-16T02:42:39;15.40;;;7.07;;
16878;SDS011;8556;52.218;9.884;2023-05-16T02:45:06;10.93;;;6.67;;
16878;SDS011;8556;52.218;9.884;2023-05-16T02:47:33;10.90;;;6.43;;
16878;SDS011;8556;52.218;9.884;2023-05-16T02:50:02;10.77;;;6.50;;
16878;SDS011;8556;52.218;9.884;2023-05-16T02:52:30;8.33;;;5.47;;
16878;SDS011;8556;52.218;9.884;2023-05-16T02:54:57;10.10;;;5.17;;
16878;SDS011;8556;52.218;9.884;2023-05-16T02:57:23;7.77;;;5.33;;
16878;SDS011;8556;52.218;9.884;2023-05-16T02:59:50;8.87;;;5.33;;
16878;SDS011;8556;52.218;9.884;2023-05-16T03:02:17;6.80;;;4.73;;
16878;SDS011;8556;52.218;9.884;2023-05-16T03:04:46;7.17;;;4.63;;
16878;SDS011;8556;52.218;9.884;2023-05-16T03:07:14;7.60;;;4.77;;
16878;SDS011;8556;52.218;9.884;2023-05-16T03:09:41;6.70;;;3.83;;
16878;SDS011;8556;52.218;9.884;2023-05-16T03:12:07;6.67;;;4.17;;
16878;SDS011;8556;52.218;9.884;2023-05-16T03:14:34;8.63;;;4.33;;
16878;SDS011;8556;52.218;9.884;2023-05-16T03:17:01;10.03;;;4.13;;
16878;SDS011;8556;52.218;9.884;2023-05-16T03:19:28;8.67;;;4.50;;
16878;SDS011;8556;52.218;9.884;2023-05-16T03:21:55;5.77;;;4.10;;
16878;SDS011;8556;52.218;9.884;2023-05-16T03:24:23;6.13;;;3.70;;
16878;SDS011;8556;52.218;9.884;2023-05-16T03:26:50;7.77;;;3.20;;
16878;SDS011;8556;52.218;9.884;2023-05-16T03:29:17;7.07;;;2.60;;
16878;SDS011;8556;52.218;9.884;2023-05-16T03:31:44;7.73;;;2.93;;
16878;SDS011;8556;52.218;9.884;2023-05-16T03:34:11;7.47;;;3.00;;
16878;SDS011;8556;52.218;9.884;2023-05-16T03:36:38;3.57;;;2.50;;
16878;SDS011;8556;52.218;9.884;2023-05-16T03:39:05;5.93;;;2.50;;
16878;SDS011;8556;52.218;9.884;2023-05-16T03:41:34;5.57;;;2.70;;
16878;SDS011;8556;52.218;9.884;2023-05-16T03:44:00;3.60;;;2.47;;
16878;SDS011;8556;52.218;9.884;2023-05-16T03:46:27;5.23;;;2.80;;
16878;SDS011;8556;52.218;9.884;2023-05-16T03:48:54;7.27;;;3.07;;
16878;SDS011;8556;52.218;9.884;2023-05-16T03:51:21;5.03;;;2.70;;
16878;SDS011;8556;52.218;9.884;2023-05-16T03:53:48;5.20;;;2.90;;
16878;SDS011;8556;52.218;9.884;2023-05-16T03:56:14;12.37;;;3.23;;
16878;SDS011;8556;52.218;9.884;2023-05-16T03:58:43;5.90;;;3.23;;
16878;SDS011;8556;52.218;9.884;2023-05-16T04:01:09;7.73;;;3.53;;
16878;SDS011;8556;52.218;9.884;2023-05-16T04:03:36;7.80;;;3.27;;
16878;SDS011;8556;52.218;9.884;2023-05-16T04:06:03;5.87;;;3.30;;
16878;SDS011;8556;52.218;9.884;2023-05-16T04:08:32;5.63;;;3.43;;
16878;SDS011;8556;52.218;9.884;2023-05-16T04:10:59;7.53;;;2.83;;
16878;SDS011;8556;52.218;9.884;2023-05-16T04:13:25;7.07;;;3.30;;
16878;SDS011;8556;52.218;9.884;2023-05-16T04:15:54;6.43;;;3.33;;
16878;SDS011;8556;52.218;9.884;2023-05-16T04:18:20;9.97;;;3.33;;
16878;SDS011;8556;52.218;9.884;2023-05-16T04:20:47;6.43;;;3.40;;
16878;SDS011;8556;52.218;9.884;2023-05-16T04:23:14;7.13;;;2.80;;
16878;SDS011;8556;52.218;9.884;2023-05-16T04:25:41;10.67;;;2.73;;
16878;SDS011;8556;52.218;9.884;2023-05-16T04:28:08;7.00;;;3.10;;
16878;SDS011;8556;52.218;9.884;2023-05-16T04:30:34;9.27;;;3.07;;
16878;SDS011;8556;52.218;9.884;2023-05-16T04:33:03;4.93;;;3.53;;
16878;SDS011;8556;52.218;9.884;2023-05-16T04:35:31;13.63;;;4.63;;
16878;SDS011;8556;52.218;9.884;2023-05-16T04:37:58;11.13;;;3.33;;
16878;SDS011;8556;52.218;9.884;2023-05-16T04:40:25;6.37;;;3.07;;
16878;SDS011;8556;52.218;9.884;2023-05-16T04:42:52;8.47;;;3.33;;
16878;SDS011;8556;52.218;9.884;2023-05-16T04:45:19;9.27;;;3.00;;
16878;SDS011;8556;52.218;9.884;2023-05-16T04:47:46;7.37;;;3.20;;
16878;SDS011;8556;52.218;9.884;2023-05-16T04:50:14;6.27;;;3.00;;
16878;SDS011;8556;52.218;9.884;2023-05-16T04:52:42;9.40;;;3.43;;
16878;SDS011;8556;52.218;9.884;2023-05-16T04:55:09;7.63;;;3.40;;
16878;SDS011;8556;52.218;9.884;2023-05-16T04:57:36;7.10;;;3.50;;
16878;SDS011;8556;52.218;9.884;2023-05-16T05:00:03;5.10;;;2.60;;
16878;SDS011;8556;52.218;9.884;2023-05-16T05:02:34;6.73;;;3.03;;
16878;SDS011;8556;52.218;9.884;2023-05-16T05:05:01;11.10;;;3.73;;
16878;SDS011;8556;52.218;9.884;2023-05-16T05:07:30;8.70;;;2.93;;
16878;SDS011;8556;52.218;9.884;2023-05-16T05:09:57;10.43;;;2.80;;
16878;SDS011;8556;52.218;9.884;2023-05-16T05:12:24;9.20;;;2.50;;
16878;SDS011;8556;52.218;9.884;2023-05-16T05:14:51;11.80;;;3.27;;
16878;SDS011;8556;52.218;9.884;2023-05-16T05:17:18;10.10;;;2.63;;
16878;SDS011;8556;52.218;9.884;2023-05-16T05:19:46;12.60;;;2.40;;
16878;SDS011;8556;52.218;9.884;2023-05-16T05:22:13;7.93;;;2.50;;
16878;SDS011;8556;52.218;9.884;2023-05-16T05:24:41;9.87;;;2.50;;
16878;SDS011;8556;52.218;9.884;2023-05-16T05:27:08;5.60;;;2.70;;
16878;SDS011;8556;52.218;9.884;2023-05-16T05:29:35;12.60;;;3.20;;
16878;SDS011;8556;52.218;9.884;2023-05-16T05:32:02;12.73;;;2.80;;
16878;SDS011;8556;52.218;9.884;2023-05-16T05:34:29;11.07;;;2.57;;
16878;SDS011;8556;52.218;9.884;2023-05-16T05:36:56;10.17;;;2.63;;
16878;SDS011;8556;52.218;9.884;2023-05-16T05:39:23;11.17;;;2.70;;
16878;SDS011;8556;52.218;9.884;2023-05-16T05:41:51;11.57;;;3.20;;
16878;SDS011;8556;52.218;9.884;2023-05-16T05:44:18;7.93;;;2.50;;
16878;SDS011;8556;52.218;9.884;2023-05-16T05:46:45;8.13;;;2.50;;
16878;SDS011;8556;52.218;9.884;2023-05-16T05:49:12;9.87;;;2.40;;
16878;SDS011;8556;52.218;9.884;2023-05-16T05:51:39;12.40;;;2.67;;
16878;SDS011;8556;52.218;9.884;2023-05-16T05:54:06;8.30;;;2.30;;
16878;SDS011;8556;52.218;9.884;2023-05-16T05:56:33;6.00;;;1.77;;
16878;SDS011;8556;52.218;9.884;2023-05-16T05:59:01;8.40;;;2.10;;
16878;SDS011;8556;52.218;9.884;2023-05-16T06:01:28;14.87;;;2.57;;
16878;SDS011;8556;52.218;9.884;2023-05-16T06:03:55;9.80;;;2.30;;
16878;SDS011;8556;52.218;9.884;2023-05-16T06:06:21;10.70;;;2.83;;
16878;SDS011;8556;52.218;9.884;2023-05-16T06:08:48;11.30;;;3.13;;
16878;SDS011;8556;52.218;9.884;2023-05-16T06:11:15;11.77;;;3.40;;
16878;SDS011;8556;52.218;9.884;2023-05-16T06:13:42;11.03;;;2.73;;
16878;SDS011;8556;52.218;9.884;2023-05-16T06:16:10;9.10;;;2.20;;
16878;SDS011;8556;52.218;9.884;2023-05-16T06:18:37;9.43;;;1.97;;
16878;SDS011;8556;52.218;9.884;2023-05-16T06:21:04;12.67;;;2.40;;
16878;SDS011;8556;52.218;9.884;2023-05-16T06:23:31;13.17;;;2.23;;
16878;SDS011;8556;52.218;9.884;2023-05-16T06:25:58;9.70;;;2.33;;
16878;SDS011;8556;52.218;9.884;2023-05-16T06:28:25;13.27;;;1.87;;
16878;SDS011;8556;52.218;9.884;2023-05-16T06:30:52;12.57;;;2.13;;
16878;SDS011;8556;52.218;9.884;2023-05-16T06:33:20;8.17;;;1.73;;
16878;SDS011;8556;52.218;9.884;2023-05-16T06:35:47;5.93;;;1.40;;
16878;SDS011;8556;52.218;9.884;2023-05-16T06:38:17;8.50;;;1.50;;
16878;SDS011;8556;52.218;9.884;2023-05-16T06:40:44;9.23;;;2.50;;
16878;SDS011;8556;52.218;9.884;2023-05-16T06:43:11;8.10;;;1.70;;
16878;SDS011;8556;52.218;9.884;2023-05-16T06:45:38;10.83;;;2.20;;
16878;SDS011;8556;52.218;9.884;2023-05-16T06:48:05;7.80;;;1.90;;
16878;SDS011;8556;52.218;9.884;2023-05-16T06:50:34;7.93;;;1.73;;
16878;SDS011;8556;52.218;9.884;2023-05-16T06:53:01;9.83;;;1.47;;
16878;SDS011;8556;52.218;9.884;2023-05-16T06:55:29;11.20;;;2.50;;
16878;SDS011;8556;52.218;9.884;2023-05-16T06:57:55;9.53;;;1.80;;
16878;SDS011;8556;52.218;9.884;2023-05-16T07:00:22;7.80;;;1.77;;
16878;SDS011;8556;52.218;9.884;2023-05-16T07:02:49;10.63;;;2.43;;
16878;SDS011;8556;52.218;9.884;2023-05-16T07:05:17;12.23;;;1.90;;
16878;SDS011;8556;52.218;9.884;2023-05-16T07:07:45;11.53;;;2.00;;
16878;SDS011;8556;52.218;9.884;2023-05-16T07:10:13;7.20;;;1.57;;
16878;SDS011;8556;52.218;9.884;2023-05-16T07:12:43;10.20;;;1.90;;
16878;SDS011;8556;52.218;9.884;2023-05-16T07:15:10;9.47;;;1.57;;
16878;SDS011;8556;52.218;9.884;2023-05-16T07:17:37;6.67;;;1.30;;
16878;SDS011;8556;52.218;9.884;2023-05-16T07:20:04;7.23;;;1.47;;
16878;SDS011;8556;52.218;9.884;2023-05-16T07:22:32;5.70;;;1.60;;
16878;SDS011;8556;52.218;9.884;2023-05-16T07:25:00;6.23;;;1.63;;
16878;SDS011;8556;52.218;9.884;2023-05-16T07:27:27;7.90;;;1.30;;
16878;SDS011;8556;52.218;9.884;2023-05-16T07:29:56;12.03;;;1.70;;
16878;SDS011;8556;52.218;9.884;2023-05-16T07:32:22;10.43;;;1.90;;
16878;SDS011;8556;52.218;9.884;2023-05-16T07:34:49;7.87;;;1.63;;
16878;SDS011;8556;52.218;9.884;2023-05-16T07:37:16;8.03;;;1.70;;
16878;SDS011;8556;52.218;9.884;2023-05-16T07:39:44;7.00;;;1.57;;
16878;SDS011;8556;52.218;9.884;2023-05-16T07:42:12;4.20;;;1.10;;
16878;SDS011;8556;52.218;9.884;2023-05-16T07:44:39;7.10;;;1.40;;
16878;SDS011;8556;52.218;9.884;2023-05-16T07:47:06;8.93;;;1.60;;
16878;SDS011;8556;52.218;9.884;2023-05-16T07:49:33;3.53;;;1.37;;
16878;SDS011;8556;52.218;9.884;2023-05-16T07:51:59;7.03;;;1.67;;
16878;SDS011;8556;52.218;9.884;2023-05-16T07:54:26;5.73;;;1.33;;
16878;SDS011;8556;52.218;9.884;2023-05-16T07:56:53;5.97;;;1.23;;
16878;SDS011;8556;52.218;9.884;2023-05-16T07:59:21;8.97;;;1.63;;
16878;SDS011;8556;52.218;9.884;2023-05-16T08:01:48;5.27;;;0.93;;
16878;SDS011;8556;52.218;9.884;2023-05-16T08:04:15;6.27;;;1.20;;
16878;SDS011;8556;52.218;9.884;2023-05-16T08:06:42;4.47;;;1.50;;
16878;SDS011;8556;52.218;9.884;2023-05-16T08:09:09;4.97;;;1.30;;
16878;SDS011;8556;52.218;9.884;2023-05-16T08:11:36;4.00;;;1.07;;
16878;SDS011;8556;52.218;9.884;2023-05-16T08:14:03;8.77;;;1.10;;
16878;SDS011;8556;52.218;9.884;2023-05-16T08:16:32;5.27;;;1.23;;
16878;SDS011;8556;52.218;9.884;2023-05-16T08:18:58;4.97;;;0.93;;
16878;SDS011;8556;52.218;9.884;2023-05-16T08:21:25;6.17;;;1.20;;
16878;SDS011;8556;52.218;9.884;2023-05-16T08:23:52;9.03;;;1.47;;
16878;SDS011;8556;52.218;9.884;2023-05-16T08:26:19;6.37;;;1.83;;
16878;SDS011;8556;52.218;9.884;2023-05-16T08:28:46;7.50;;;1.40;;
16878;SDS011;8556;52.218;9.884;2023-05-16T08:31:14;10.90;;;1.40;;
16878;SDS011;8556;52.218;9.884;2023-05-16T08:33:42;7.13;;;1.40;;
16878;SDS011;8556;52.218;9.884;2023-05-16T08:36:09;6.70;;;1.13;;
16878;SDS011;8556;52.218;9.884;2023-05-16T08:38:36;2.90;;;0.93;;
16878;SDS011;8556;52.218;9.884;2023-05-16T08:41:02;6.87;;;1.47;;
16878;SDS011;8556;52.218;9.884;2023-05-16T08:43:30;2.07;;;1.10;;
16878;SDS011;8556;52.218;9.884;2023-05-16T08:45:59;5.57;;;1.27;;
16878;SDS011;8556;52.218;9.884;2023-05-16T08:48:26;5.93;;;1.33;;
16878;SDS011;8556;52.218;9.884;2023-05-16T08:50:55;5.77;;;1.40;;
16878;SDS011;8556;52.218;9.884;2023-05-16T08:53:25;4.00;;;0.97;;
16878;SDS011;8556;52.218;9.884;2023-05-16T08:55:57;3.37;;;0.93;;
16878;SDS011;8556;52.218;9.884;2023-05-16T08:58:25;9.80;;;1.83;;
16878;SDS011;8556;52.218;9.884;2023-05-16T09:00:54;5.67;;;1.07;;
16878;SDS011;8556;52.218;9.884;2023-05-16T09:03:21;6.20;;;1.40;;
16878;SDS011;8556;52.218;9.884;2023-05-16T09:05:49;6.93;;;1.20;;
16878;SDS011;8556;52.218;9.884;2023-05-16T09:08:18;5.30;;;1.30;;
16878;SDS011;8556;52.218;9.884;2023-05-16T09:10:45;5.83;;;1.30;;
16878;SDS011;8556;52.218;9.884;2023-05-16T09:13:12;3.17;;;0.90;;
16878;SDS011;8556;52.218;9.884;2023-05-16T09:15:39;2.67;;;0.80;;
16878;SDS011;8556;52.218;9.884;2023-05-16T09:18:10;7.00;;;1.47;;
16878;SDS011;8556;52.218;9.884;2023-05-16T09:20:37;5.27;;;1.70;;
16878;SDS011;8556;52.218;9.884;2023-05-16T09:23:10;5.63;;;1.37;;
16878;SDS011;8556;52.218;9.884;2023-05-16T09:25:38;8.10;;;1.57;;
16878;SDS011;8556;52.218;9.884;2023-05-16T09:28:09;5.63;;;1.40;;
16878;SDS011;8556;52.218;9.884;2023-05-16T09:30:40;9.03;;;1.20;;
16878;SDS011;8556;52.218;9.884;2023-05-16T09:33:11;4.70;;;1.10;;
16878;SDS011;8556;52.218;9.884;2023-05-16T09:35:39;5.47;;;1.37;;
16878;SDS011;8556;52.218;9.884;2023-05-16T09:38:11;6.67;;;1.73;;
16878;SDS011;8556;52.218;9.884;2023-05-16T09:40:40;3.90;;;1.07;;
16878;SDS011;8556;52.218;9.884;2023-05-16T09:43:10;3.90;;;1.47;;
16878;SDS011;8556;52.218;9.884;2023-05-16T09:45:42;5.00;;;1.40;;
16878;SDS011;8556;52.218;9.884;2023-05-16T09:48:11;3.00;;;1.13;;
16878;SDS011;8556;52.218;9.884;2023-05-16T09:50:39;4.70;;;1.17;;
16878;SDS011;8556;52.218;9.884;2023-05-16T09:53:12;4.40;;;1.33;;
16878;SDS011;8556;52.218;9.884;2023-05-16T09:55:40;3.42;;;1.10;;
16878;SDS011;8556;52.218;9.884;2023-05-16T09:58:07;4.30;;;1.03;;
16878;SDS011;8556;52.218;9.884;2023-05-16T10:00:34;3.13;;;0.98;;
16878;SDS011;8556;52.218;9.884;2023-05-16T10:03:02;4.35;;;1.33;;
16878;SDS011;8556;52.218;9.884;2023-05-16T10:05:29;6.03;;;1.42;;
16878;SDS011;8556;52.218;9.884;2023-05-16T10:07:57;3.92;;;0.90;;
16878;SDS011;8556;52.218;9.884;2023-05-16T10:10:24;2.47;;;0.70;;
16878;SDS011;8556;52.218;9.884;2023-05-16T10:12:53;3.08;;;1.42;;
16878;SDS011;8556;52.218;9.884;2023-05-16T10:15:24;5.55;;;1.23;;
16878;SDS011;8556;52.218;9.884;2023-05-16T10:17:53;5.53;;;1.13;;
16878;SDS011;8556;52.218;9.884;2023-05-16T10:20:23;2.80;;;0.88;;
16878;SDS011;8556;52.218;9.884;2023-05-16T10:22:52;2.63;;;1.20;;
16878;SDS011;8556;52.218;9.884;2023-05-16T10:25:23;2.17;;;0.80;;
16878;SDS011;8556;52.218;9.884;2023-05-16T10:27:55;3.35;;;0.90;;
16878;SDS011;8556;52.218;9.884;2023-05-16T10:30:23;5.63;;;1.52;;
16878;SDS011;8556;52.218;9.884;2023-05-16T10:32:50;2.88;;;0.80;;
16878;SDS011;8556;52.218;9.884;2023-05-16T10:35:19;4.97;;;1.23;;
16878;SDS011;8556;52.218;9.884;2023-05-16T10:37:45;2.67;;;0.85;;
16878;SDS011;8556;52.218;9.884;2023-05-16T10:40:13;3.65;;;1.00;;
16878;SDS011;8556;52.218;9.884;2023-05-16T10:42:43;3.75;;;0.93;;
16878;SDS011;8556;52.218;9.884;2023-05-16T10:45:21;4.97;;;1.25;;
16878;SDS011;8556;52.218;9.884;2023-05-16T10:47:52;2.67;;;1.00;;
16878;SDS011;8556;52.218;9.884;2023-05-16T10:50:29;3.17;;;1.17;;
16878;SDS011;8556;52.218;9.884;2023-05-16T10:53:09;5.60;;;1.73;;
16878;SDS011;8556;52.218;9.884;2023-05-16T10:55:43;4.18;;;1.27;;
16878;SDS011;8556;52.218;9.884;2023-05-16T10:58:38;4.45;;;0.98;;
16878;SDS011;8556;52.218;9.884;2023-05-16T11:01:20;5.07;;;1.10;;
16878;SDS011;8556;52.218;9.884;2023-05-16T11:06:43;3.83;;;1.08;;
16878;SDS011;8556;52.218;9.884;2023-05-16T11:09:24;6.07;;;1.13;;
16878;SDS011;8556;52.218;9.884;2023-05-16T11:11:53;3.38;;;1.10;;
16878;SDS011;8556;52.218;9.884;2023-05-16T11:14:27;2.33;;;0.90;;
16878;SDS011;8556;52.218;9.884;2023-05-16T11:17:05;2.88;;;1.15;;
16878;SDS011;8556;52.218;9.884;2023-05-16T11:19:34;2.28;;;0.80;;
16878;SDS011;8556;52.218;9.884;2023-05-16T11:22:06;3.58;;;1.05;;
16878;SDS011;8556;52.218;9.884;2023-05-16T11:24:33;4.32;;;0.88;;
16878;SDS011;8556;52.218;9.884;2023-05-16T11:27:04;3.90;;;1.15;;
16878;SDS011;8556;52.218;9.884;2023-05-16T11:29:32;2.35;;;1.02;;
16878;SDS011;8556;52.218;9.884;2023-05-16T11:32:00;2.22;;;1.20;;
16878;SDS011;8556;52.218;9.884;2023-05-16T11:34:30;3.33;;;0.90;;
16878;SDS011;8556;52.218;9.884;2023-05-16T11:36:57;2.25;;;0.85;;
16878;SDS011;8556;52.218;9.884;2023-05-16T11:39:28;2.67;;;0.85;;
16878;SDS011;8556;52.218;9.884;2023-05-16T11:41:55;3.95;;;1.08;;
16878;SDS011;8556;52.218;9.884;2023-05-16T11:44:22;3.33;;;0.82;;
16878;SDS011;8556;52.218;9.884;2023-05-16T11:46:49;3.53;;;1.00;;
16878;SDS011;8556;52.218;9.884;2023-05-16T11:49:17;6.32;;;1.20;;
16878;SDS011;8556;52.218;9.884;2023-05-16T11:51:44;3.47;;;1.20;;
16878;SDS011;8556;52.218;9.884;2023-05-16T11:54:11;1.92;;;0.80;;
16878;SDS011;8556;52.218;9.884;2023-05-16T11:56:38;4.70;;;1.25;;
16878;SDS011;8556;52.218;9.884;2023-05-16T11:59:06;3.80;;;1.15;;
16878;SDS011;8556;52.218;9.884;2023-05-16T12:01:33;4.63;;;1.30;;
16878;SDS011;8556;52.218;9.884;2023-05-16T12:04:01;7.53;;;1.88;;
16878;SDS011;8556;52.218;9.884;2023-05-16T12:06:34;5.68;;;1.35;;
16878;SDS011;8556;52.218;9.884;2023-05-16T12:09:01;6.43;;;2.63;;
16878;SDS011;8556;52.218;9.884;2023-05-16T12:11:34;2.95;;;1.30;;
16878;SDS011;8556;52.218;9.884;2023-05-16T12:14:02;4.18;;;1.00;;
16878;SDS011;8556;52.218;9.884;2023-05-16T12:16:29;6.68;;;1.50;;
16878;SDS011;8556;52.218;9.884;2023-05-16T12:18:57;2.95;;;0.95;;
16878;SDS011;8556;52.218;9.884;2023-05-16T12:21:24;1.65;;;1.00;;
16878;SDS011;8556;52.218;9.884;2023-05-16T12:23:54;2.03;;;0.95;;
16878;SDS011;8556;52.218;9.884;2023-05-16T12:26:25;4.10;;;1.58;;
16878;SDS011;8556;52.218;9.884;2023-05-16T12:28:55;2.45;;;0.93;;
16878;SDS011;8556;52.218;9.884;2023-05-16T12:31:24;1.90;;;0.90;;
16878;SDS011;8556;52.218;9.884;2023-05-16T12:33:52;4.53;;;0.90;;
16878;SDS011;8556;52.218;9.884;2023-05-16T12:36:19;3.17;;;1.23;;
16878;SDS011;8556;52.218;9.884;2023-05-16T12:38:46;4.72;;;1.08;;
16878;SDS011;8556;52.218;9.884;2023-05-16T12:41:17;2.38;;;0.82;;
16878;SDS011;8556;52.218;9.884;2023-05-16T12:43:45;2.55;;;0.90;;
16878;SDS011;8556;52.218;9.884;2023-05-16T12:46:12;2.95;;;1.00;;
16878;SDS011;8556;52.218;9.884;2023-05-16T12:48:39;2.75;;;0.82;;
16878;SDS011;8556;52.218;9.884;2023-05-16T12:51:09;2.85;;;0.80;;
16878;SDS011;8556;52.218;9.884;2023-05-16T12:53:41;2.97;;;0.80;;
16878;SDS011;8556;52.218;9.884;2023-05-16T12:56:09;2.47;;;1.05;;
16878;SDS011;8556;52.218;9.884;2023-05-16T12:58:38;2.80;;;0.93;;
16878;SDS011;8556;52.218;9.884;2023-05-16T13:01:05;3.17;;;1.00;;
16878;SDS011;8556;52.218;9.884;2023-05-16T13:03:32;3.58;;;1.10;;
16878;SDS011;8556;52.218;9.884;2023-05-16T13:06:00;4.80;;;1.17;;
16878;SDS011;8556;52.218;9.884;2023-05-16T13:08:28;1.92;;;0.77;;
16878;SDS011;8556;52.218;9.884;2023-05-16T13:10:55;2.55;;;1.35;;
16878;SDS011;8556;52.218;9.884;2023-05-16T13:13:22;3.17;;;1.13;;
16878;SDS011;8556;52.218;9.884;2023-05-16T13:15:50;3.97;;;1.20;;
16878;SDS011;8556;52.218;9.884;2023-05-16T13:18:17;2.97;;;0.90;;
16878;SDS011;8556;52.218;9.884;2023-05-16T13:20:43;4.68;;;1.33;;
16878;SDS011;8556;52.218;9.884;2023-05-16T13:23:10;3.78;;;1.23;;
16878;SDS011;8556;52.218;9.884;2023-05-16T13:25:37;9.95;;;1.67;;
16878;SDS011;8556;52.218;9.884;2023-05-16T13:28:04;6.93;;;1.42;;
16878;SDS011;8556;52.218;9.884;2023-05-16T13:30:31;6.88;;;1.60;;
16878;SDS011;8556;52.218;9.884;2023-05-16T13:32:59;6.13;;;1.38;;
16878;SDS011;8556;52.218;9.884;2023-05-16T13:35:26;5.35;;;1.27;;
16878;SDS011;8556;52.218;9.884;2023-05-16T13:37:53;4.05;;;1.42;;
16878;SDS011;8556;52.218;9.884;2023-05-16T13:40:20;4.97;;;1.15;;
16878;SDS011;8556;52.218;9.884;2023-05-16T13:42:47;4.70;;;1.17;;
16878;SDS011;8556;52.218;9.884;2023-05-16T13:45:14;5.30;;;1.67;;
16878;SDS011;8556;52.218;9.884;2023-05-16T13:47:41;4.70;;;1.00;;
16878;SDS011;8556;52.218;9.884;2023-05-16T13:50:10;3.42;;;1.00;;
16878;SDS011;8556;52.218;9.884;2023-05-16T13:52:37;6.85;;;2.17;;
16878;SDS011;8556;52.218;9.884;2023-05-16T13:55:04;2.88;;;1.10;;
16878;SDS011;8556;52.218;9.884;2023-05-16T13:57:32;4.53;;;1.00;;
16878;SDS011;8556;52.218;9.884;2023-05-16T13:59:59;4.70;;;1.35;;
16878;SDS011;8556;52.218;9.884;2023-05-16T14:02:26;3.78;;;0.82;;
16878;SDS011;8556;52.218;9.884;2023-05-16T14:04:53;4.70;;;0.80;;
16878;SDS011;8556;52.218;9.884;2023-05-16T14:07:21;2.17;;;0.75;;
16878;SDS011;8556;52.218;9.884;2023-05-16T14:09:48;1.58;;;0.80;;
16878;SDS011;8556;52.218;9.884;2023-05-16T14:12:15;3.88;;;0.90;;
16878;SDS011;8556;52.218;9.884;2023-05-16T14:14:42;2.35;;;0.80;;
16878;SDS011;8556;52.218;9.884;2023-05-16T14:17:09;2.17;;;0.80;;
16878;SDS011;8556;52.218;9.884;2023-05-16T14:19:36;3.08;;;0.95;;
16878;SDS011;8556;52.218;9.884;2023-05-16T14:22:05;2.80;;;0.90;;
16878;SDS011;8556;52.218;9.884;2023-05-16T14:24:33;2.17;;;0.70;;
16878;SDS011;8556;52.218;9.884;2023-05-16T14:27:00;3.50;;;0.90;;
16878;SDS011;8556;52.218;9.884;2023-05-16T14:29:27;3.63;;;1.00;;
16878;SDS011;8556;52.218;9.884;2023-05-16T14:31:54;3.78;;;0.88;;
16878;SDS011;8556;52.218;9.884;2023-05-16T14:34:21;0.93;;;0.60;;
16878;SDS011;8556;52.218;9.884;2023-05-16T14:36:48;4.25;;;0.90;;
16878;SDS011;8556;52.218;9.884;2023-05-16T14:39:15;3.95;;;0.88;;
16878;SDS011;8556;52.218;9.884;2023-05-16T14:41:46;2.40;;;0.68;;
16878;SDS011;8556;52.218;9.884;2023-05-16T14:44:14;1.75;;;0.93;;
16878;SDS011;8556;52.218;9.884;2023-05-16T14:46:48;2.38;;;0.98;;
16878;SDS011;8556;52.218;9.884;2023-05-16T14:49:16;6.45;;;1.27;;
16878;SDS011;8556;52.218;9.884;2023-05-16T14:51:43;1.83;;;0.73;;
16878;SDS011;8556;52.218;9.884;2023-05-16T14:54:13;6.13;;;0.98;;
16878;SDS011;8556;52.218;9.884;2023-05-16T14:56:40;4.22;;;1.23;;
16878;SDS011;8556;52.218;9.884;2023-05-16T14:59:08;5.80;;;1.17;;
16878;SDS011;8556;52.218;9.884;2023-05-16T15:01:35;2.08;;;0.80;;
16878;SDS011;8556;52.218;9.884;2023-05-16T15:04:02;6.20;;;1.40;;
16878;SDS011;8556;52.218;9.884;2023-05-16T15:06:29;3.87;;;1.03;;